sim
Sign-in with your pilot id or email,
or register
Callsign
Passwort

Schedule Details

Flight Number: DLH2621
Departure: Katowice International Airport (EPKT) at 16:55
Arrival: Munich Airport (EDDM) at 18:15
Route: Lufthansa Passenger Schedule. Enter filed route here before submitting Pirep.

Weather Information
Getting current METAR information for EPKT 210230Z 07004KT 9999 MIFG NSC 04/04 Q1019
Getting current METAR information for EDDM 210220Z VRB02KT CAVOK 09/09 Q1016 NOSIG

Schedule Frequency

Route Map